sensor_id;sensor_type;location;lat;lon;timestamp;pressure;altitude;pressure_sealevel;temperature;humidity
21900;BME280;11114;50.658;12.704;2023-05-22T00:02:03;95989.84;;;18.84;57.96
21900;BME280;11114;50.658;12.704;2023-05-22T00:04:50;95994.31;;;18.84;57.87
21900;BME280;11114;50.658;12.704;2023-05-22T00:07:37;95989.44;;;18.81;58.63
21900;BME280;11114;50.658;12.704;2023-05-22T00:10:24;95985.41;;;18.78;58.10
21900;BME280;11114;50.658;12.704;2023-05-22T00:13:10;95977.69;;;18.77;58.29
21900;BME280;11114;50.658;12.704;2023-05-22T00:15:57;95982.38;;;18.75;58.49
21900;BME280;11114;50.658;12.704;2023-05-22T00:18:43;95976.06;;;18.76;58.49
21900;BME280;11114;50.658;12.704;2023-05-22T00:21:29;95973.63;;;18.74;58.56
21900;BME280;11114;50.658;12.704;2023-05-22T00:24:20;95970.59;;;18.71;58.74
21900;BME280;11114;50.658;12.704;2023-05-22T00:27:06;95971.59;;;18.70;58.39
21900;BME280;11114;50.658;12.704;2023-05-22T00:29:53;95963.09;;;18.68;58.58
21900;BME280;11114;50.658;12.704;2023-05-22T00:32:39;95967.19;;;18.64;58.93
21900;BME280;11114;50.658;12.704;2023-05-22T00:35:28;95960.25;;;18.63;58.64
21900;BME280;11114;50.658;12.704;2023-05-22T00:38:33;95963.97;;;18.55;60.20
21900;BME280;11114;50.658;12.704;2023-05-22T00:41:20;95966.66;;;18.49;59.47
21900;BME280;11114;50.658;12.704;2023-05-22T00:44:06;95963.78;;;18.50;59.54
21900;BME280;11114;50.658;12.704;2023-05-22T00:46:53;95965.81;;;18.48;59.63
21900;BME280;11114;50.658;12.704;2023-05-22T00:49:40;95960.38;;;18.43;59.72
21900;BME280;11114;50.658;12.704;2023-05-22T00:52:27;95971.34;;;18.40;59.77
21900;BME280;11114;50.658;12.704;2023-05-22T00:55:14;95968.72;;;18.34;60.44
21900;BME280;11114;50.658;12.704;2023-05-22T00:58:03;95970.97;;;18.30;60.46
21900;BME280;11114;50.658;12.704;2023-05-22T01:00:53;95965.91;;;18.29;60.38
21900;BME280;11114;50.658;12.704;2023-05-22T01:03:41;95968.56;;;18.29;60.56
21900;BME280;11114;50.658;12.704;2023-05-22T01:06:29;95963.91;;;18.24;60.71
21900;BME280;11114;50.658;12.704;2023-05-22T01:09:17;95963.69;;;18.19;60.97
21900;BME280;11114;50.658;12.704;2023-05-22T01:18:06;95966.38;;;18.13;61.69
21900;BME280;11114;50.658;12.704;2023-05-22T01:31:05;95968.22;;;18.06;61.59
21900;BME280;11114;50.658;12.704;2023-05-22T01:33:55;95966.19;;;18.02;61.72
21900;BME280;11114;50.658;12.704;2023-05-22T01:36:45;95972.50;;;18.01;62.01
21900;BME280;11114;50.658;12.704;2023-05-22T01:39:34;95975.16;;;18.01;62.01
21900;BME280;11114;50.658;12.704;2023-05-22T01:42:21;95969.47;;;17.97;62.08
21900;BME280;11114;50.658;12.704;2023-05-22T01:45:09;95977.56;;;17.96;62.46
21900;BME280;11114;50.658;12.704;2023-05-22T01:47:57;95969.88;;;17.94;62.61
21900;BME280;11114;50.658;12.704;2023-05-22T01:50:45;95966.63;;;17.92;62.75
21900;BME280;11114;50.658;12.704;2023-05-22T01:53:46;95972.53;;;17.88;63.51
21900;BME280;11114;50.658;12.704;2023-05-22T01:56:49;95969.69;;;17.83;63.36
21900;BME280;11114;50.658;12.704;2023-05-22T01:59:48;95978.44;;;17.83;63.36
21900;BME280;11114;50.658;12.704;2023-05-22T02:02:38;95975.19;;;17.81;63.22
21900;BME280;11114;50.658;12.704;2023-05-22T02:05:28;95973.56;;;17.80;63.49
21900;BME280;11114;50.658;12.704;2023-05-22T02:08:16;95971.13;;;17.79;63.54
21900;BME280;11114;50.658;12.704;2023-05-22T02:11:03;95973.97;;;17.77;63.42
21900;BME280;11114;50.658;12.704;2023-05-22T02:13:50;95961.78;;;17.76;63.56
21900;BME280;11114;50.658;12.704;2023-05-22T02:16:37;95960.59;;;17.72;63.85
21900;BME280;11114;50.658;12.704;2023-05-22T02:19:24;95961.22;;;17.68;64.20
21900;BME280;11114;50.658;12.704;2023-05-22T02:22:11;95958.75;;;17.66;64.22
21900;BME280;11114;50.658;12.704;2023-05-22T02:25:00;95954.50;;;17.65;64.27
21900;BME280;11114;50.658;12.704;2023-05-22T02:27:47;95956.13;;;17.66;64.16
21900;BME280;11114;50.658;12.704;2023-05-22T02:30:35;95958.97;;;17.65;64.01
21900;BME280;11114;50.658;12.704;2023-05-22T02:33:22;95948.81;;;17.68;64.21
21900;BME280;11114;50.658;12.704;2023-05-22T02:36:08;95944.75;;;17.66;64.29
21900;BME280;11114;50.658;12.704;2023-05-22T02:38:58;95939.66;;;17.64;64.49
21900;BME280;11114;50.658;12.704;2023-05-22T02:41:44;95948.03;;;17.61;64.43
21900;BME280;11114;50.658;12.704;2023-05-22T02:44:31;95942.34;;;17.58;64.63
21900;BME280;11114;50.658;12.704;2023-05-22T02:47:17;95943.13;;;17.58;64.54
21900;BME280;11114;50.658;12.704;2023-05-22T02:50:05;95934.41;;;17.58;64.45
21900;BME280;11114;50.658;12.704;2023-05-22T02:52:52;95935.03;;;17.53;64.91
21900;BME280;11114;50.658;12.704;2023-05-22T02:55:38;95937.06;;;17.51;64.73
21900;BME280;11114;50.658;12.704;2023-05-22T02:58:25;95932.19;;;17.48;65.10
21900;BME280;11114;50.658;12.704;2023-05-22T03:01:12;95936.28;;;17.44;64.95
21900;BME280;11114;50.658;12.704;2023-05-22T03:03:58;95935.03;;;17.40;65.29
21900;BME280;11114;50.658;12.704;2023-05-22T03:06:44;95935.88;;;17.41;65.13
21900;BME280;11114;50.658;12.704;2023-05-22T03:09:32;95935.88;;;17.41;65.42
21900;BME280;11114;50.658;12.704;2023-05-22T03:12:19;95939.91;;;17.37;65.49
21900;BME280;11114;50.658;12.704;2023-05-22T03:15:06;95934.88;;;17.35;65.43
21900;BME280;11114;50.658;12.704;2023-05-22T03:17:53;95930.59;;;17.34;65.23
21900;BME280;11114;50.658;12.704;2023-05-22T03:20:39;95920.44;;;17.32;65.37
21900;BME280;11114;50.658;12.704;2023-05-22T03:23:26;95937.09;;;17.32;65.36
21900;BME280;11114;50.658;12.704;2023-05-22T03:26:12;95930.38;;;17.30;65.50
21900;BME280;11114;50.658;12.704;2023-05-22T03:28:59;95936.69;;;17.29;65.34
21900;BME280;11114;50.658;12.704;2023-05-22T03:31:46;95925.94;;;17.30;65.30
21900;BME280;11114;50.658;12.704;2023-05-22T03:34:33;95927.56;;;17.31;65.31
21900;BME280;11114;50.658;12.704;2023-05-22T03:37:20;95927.34;;;17.33;65.11
21900;BME280;11114;50.658;12.704;2023-05-22T03:40:09;95922.06;;;17.33;65.11
21900;BME280;11114;50.658;12.704;2023-05-22T03:42:55;95929.97;;;17.33;64.89
21900;BME280;11114;50.658;12.704;2023-05-22T03:45:42;95918.81;;;17.31;65.07
21900;BME280;11114;50.658;12.704;2023-05-22T03:48:29;95924.72;;;17.33;64.97
21900;BME280;11114;50.658;12.704;2023-05-22T03:51:16;95922.88;;;17.33;64.86
21900;BME280;11114;50.658;12.704;2023-05-22T03:54:05;95926.53;;;17.32;64.85
21900;BME280;11114;50.658;12.704;2023-05-22T03:56:53;95925.72;;;17.32;64.75
21900;BME280;11114;50.658;12.704;2023-05-22T03:59:39;95928.34;;;17.32;64.92
21900;BME280;11114;50.658;12.704;2023-05-22T04:02:26;95925.31;;;17.34;64.89
21900;BME280;11114;50.658;12.704;2023-05-22T04:05:15;95925.94;;;17.36;64.83
21900;BME280;11114;50.658;12.704;2023-05-22T04:08:02;95926.72;;;17.37;64.71
21900;BME280;11114;50.658;12.704;2023-05-22T04:10:48;95918.59;;;17.38;64.59
21900;BME280;11114;50.658;12.704;2023-05-22T04:13:34;95917.81;;;17.38;64.68
21900;BME280;11114;50.658;12.704;2023-05-22T04:16:23;95924.50;;;17.40;64.63
21900;BME280;11114;50.658;12.704;2023-05-22T04:19:09;95927.75;;;17.42;64.31
21900;BME280;11114;50.658;12.704;2023-05-22T04:21:57;95928.34;;;17.44;64.66
21900;BME280;11114;50.658;12.704;2023-05-22T04:24:43;95926.50;;;17.45;64.17
21900;BME280;11114;50.658;12.704;2023-05-22T04:27:35;95930.56;;;17.47;64.28
21900;BME280;11114;50.658;12.704;2023-05-22T04:30:22;95930.97;;;17.51;64.28
21900;BME280;11114;50.658;12.704;2023-05-22T04:33:10;95934.44;;;17.51;64.21
21900;BME280;11114;50.658;12.704;2023-05-22T04:35:57;95928.13;;;17.52;64.09
21900;BME280;11114;50.658;12.704;2023-05-22T04:38:46;95932.19;;;17.55;64.13
21900;BME280;11114;50.658;12.704;2023-05-22T04:41:32;95938.25;;;17.55;64.10
21900;BME280;11114;50.658;12.704;2023-05-22T04:44:19;95930.97;;;17.57;64.21
21900;BME280;11114;50.658;12.704;2023-05-22T04:47:10;95926.28;;;17.59;64.33
21900;BME280;11114;50.658;12.704;2023-05-22T04:49:57;95936.22;;;17.64;64.10
21900;BME280;11114;50.658;12.704;2023-05-22T04:52:45;95922.41;;;17.68;64.06
21900;BME280;11114;50.658;12.704;2023-05-22T04:55:32;95925.66;;;17.77;64.03
21900;BME280;11114;50.658;12.704;2023-05-22T04:58:19;95929.25;;;17.82;63.73
21900;BME280;11114;50.658;12.704;2023-05-22T05:01:06;95930.88;;;17.90;63.57
21900;BME280;11114;50.658;12.704;2023-05-22T05:03:52;95933.69;;;17.95;63.35
21900;BME280;11114;50.658;12.704;2023-05-22T05:06:39;95924.75;;;18.02;63.46
21900;BME280;11114;50.658;12.704;2023-05-22T05:09:25;95927.13;;;18.10;63.54
21900;BME280;11114;50.658;12.704;2023-05-22T05:12:12;95920.44;;;18.14;63.35
21900;BME280;11114;50.658;12.704;2023-05-22T05:14:59;95922.22;;;18.20;63.26
21900;BME280;11114;50.658;12.704;2023-05-22T05:17:46;95918.75;;;18.26;63.13
21900;BME280;11114;50.658;12.704;2023-05-22T05:20:32;95924.25;;;18.31;62.77
21900;BME280;11114;50.658;12.704;2023-05-22T05:23:20;95924.41;;;18.36;62.99
21900;BME280;11114;50.658;12.704;2023-05-22T05:26:08;95926.22;;;18.42;62.99
21900;BME280;11114;50.658;12.704;2023-05-22T05:28:54;95922.72;;;18.48;62.76
21900;BME280;11114;50.658;12.704;2023-05-22T05:31:47;95927.75;;;18.56;62.82
21900;BME280;11114;50.658;12.704;2023-05-22T05:34:47;95924.47;;;18.60;63.43
21900;BME280;11114;50.658;12.704;2023-05-22T05:37:54;95917.91;;;18.69;62.13
21900;BME280;11114;50.658;12.704;2023-05-22T05:40:43;95915.84;;;18.78;62.34
21900;BME280;11114;50.658;12.704;2023-05-22T05:43:30;95918.22;;;18.86;62.46
21900;BME280;11114;50.658;12.704;2023-05-22T05:46:22;95917.97;;;18.94;61.93
21900;BME280;11114;50.658;12.704;2023-05-22T05:49:09;95915.47;;;18.98;61.83
21900;BME280;11114;50.658;12.704;2023-05-22T05:51:58;95915.66;;;19.03;61.26
21900;BME280;11114;50.658;12.704;2023-05-22T05:54:45;95911.16;;;19.10;61.61
21900;BME280;11114;50.658;12.704;2023-05-22T05:57:37;95915.56;;;19.16;61.17
21900;BME280;11114;50.658;12.704;2023-05-22T06:00:27;95908.81;;;19.20;60.75
21900;BME280;11114;50.658;12.704;2023-05-22T06:03:18;95913.47;;;19.25;60.90
21900;BME280;11114;50.658;12.704;2023-05-22T06:06:25;95917.00;;;19.37;60.83
21900;BME280;11114;50.658;12.704;2023-05-22T06:09:27;95917.91;;;19.49;60.50
21900;BME280;11114;50.658;12.704;2023-05-22T06:12:27;95910.22;;;19.65;60.20
21900;BME280;11114;50.658;12.704;2023-05-22T06:15:13;95914.47;;;19.84;60.15
21900;BME280;11114;50.658;12.704;2023-05-22T06:18:00;95906.94;;;20.05;59.66
21900;BME280;11114;50.658;12.704;2023-05-22T06:20:47;95913.31;;;20.34;59.47
21900;BME280;11114;50.658;12.704;2023-05-22T06:23:33;95909.84;;;20.63;59.05
21900;BME280;11114;50.658;12.704;2023-05-22T06:26:20;95902.59;;;20.87;58.33
21900;BME280;11114;50.658;12.704;2023-05-22T06:29:08;95914.88;;;21.11;57.23
21900;BME280;11114;50.658;12.704;2023-05-22T06:31:55;95911.28;;;21.29;56.83
21900;BME280;11114;50.658;12.704;2023-05-22T06:34:43;95911.00;;;21.48;56.62
21900;BME280;11114;50.658;12.704;2023-05-22T06:37:31;95905.22;;;21.74;56.75
21900;BME280;11114;50.658;12.704;2023-05-22T06:40:21;95905.31;;;22.02;55.73
21900;BME280;11114;50.658;12.704;2023-05-22T06:43:10;95911.34;;;22.25;55.77
21900;BME280;11114;50.658;12.704;2023-05-22T06:46:17;95909.59;;;22.53;55.00
21900;BME280;11114;50.658;12.704;2023-05-22T06:49:10;95903.09;;;22.77;54.37
21900;BME280;11114;50.658;12.704;2023-05-22T06:52:07;95911.09;;;23.05;53.76
21900;BME280;11114;50.658;12.704;2023-05-22T06:54:55;95905.03;;;23.26;52.65
21900;BME280;11114;50.658;12.704;2023-05-22T06:57:54;95916.19;;;23.56;53.18
21900;BME280;11114;50.658;12.704;2023-05-22T07:00:43;95911.06;;;23.87;51.97
21900;BME280;11114;50.658;12.704;2023-05-22T07:03:39;95901.03;;;24.15;51.88
21900;BME280;11114;50.658;12.704;2023-05-22T07:06:49;95911.69;;;24.53;50.18
21900;BME280;11114;50.658;12.704;2023-05-22T07:09:36;95903.34;;;24.71;50.35
21900;BME280;11114;50.658;12.704;2023-05-22T07:12:23;95901.94;;;24.90;49.35
21900;BME280;11114;50.658;12.704;2023-05-22T07:15:12;95907.38;;;25.00;49.21
21900;BME280;11114;50.658;12.704;2023-05-22T07:18:05;95907.03;;;25.18;48.68
21900;BME280;11114;50.658;12.704;2023-05-22T07:20:53;95903.47;;;25.39;47.72
21900;BME280;11114;50.658;12.704;2023-05-22T07:23:41;95899.84;;;25.55;47.52
21900;BME280;11114;50.658;12.704;2023-05-22T07:26:28;95901.22;;;25.62;46.79
21900;BME280;11114;50.658;12.704;2023-05-22T07:29:24;95891.03;;;25.59;46.92
21900;BME280;11114;50.658;12.704;2023-05-22T07:32:12;95894.25;;;25.56;45.47
21900;BME280;11114;50.658;12.704;2023-05-22T07:34:59;95891.59;;;25.61;45.99
21900;BME280;11114;50.658;12.704;2023-05-22T07:37:46;95895.59;;;25.59;45.64
21900;BME280;11114;50.658;12.704;2023-05-22T07:40:34;95898.53;;;25.57;45.78
21900;BME280;11114;50.658;12.704;2023-05-22T07:43:20;95898.59;;;25.67;45.33
21900;BME280;11114;50.658;12.704;2023-05-22T07:46:07;95901.47;;;25.92;45.74
21900;BME280;11114;50.658;12.704;2023-05-22T07:49:03;95895.97;;;26.18;44.99
21900;BME280;11114;50.658;12.704;2023-05-22T07:51:51;95890.78;;;26.48;45.06
21900;BME280;11114;50.658;12.704;2023-05-22T07:54:39;95890.31;;;26.71;43.92
21900;BME280;11114;50.658;12.704;2023-05-22T07:57:29;95891.38;;;26.70;43.48
21900;BME280;11114;50.658;12.704;2023-05-22T08:00:21;95881.22;;;26.72;43.47
21900;BME280;11114;50.658;12.704;2023-05-22T08:03:07;95883.88;;;26.77;43.41
21900;BME280;11114;50.658;12.704;2023-05-22T08:05:54;95889.28;;;26.87;42.91
21900;BME280;11114;50.658;12.704;2023-05-22T08:08:40;95886.88;;;27.00;42.05
21900;BME280;11114;50.658;12.704;2023-05-22T08:11:27;95888.78;;;27.05;41.71
21900;BME280;11114;50.658;12.704;2023-05-22T08:14:14;95881.03;;;27.18;40.40
21900;BME280;11114;50.658;12.704;2023-05-22T08:17:01;95881.59;;;27.30;40.95
21900;BME280;11114;50.658;12.704;2023-05-22T08:19:47;95875.41;;;27.54;40.51
21900;BME280;11114;50.658;12.704;2023-05-22T08:22:34;95885.59;;;27.87;40.26
21900;BME280;11114;50.658;12.704;2023-05-22T08:25:20;95873.16;;;28.16;40.01
21900;BME280;11114;50.658;12.704;2023-05-22T08:28:06;95880.00;;;28.52;38.45
21900;BME280;11114;50.658;12.704;2023-05-22T08:30:53;95882.84;;;28.80;38.53
21900;BME280;11114;50.658;12.704;2023-05-22T08:33:40;95879.28;;;28.95;38.18
21900;BME280;11114;50.658;12.704;2023-05-22T08:36:29;95871.91;;;29.10;37.53
21900;BME280;11114;50.658;12.704;2023-05-22T08:39:16;95875.59;;;29.19;37.58
21900;BME280;11114;50.658;12.704;2023-05-22T08:42:04;95891.91;;;29.32;36.11
21900;BME280;11114;50.658;12.704;2023-05-22T08:44:51;95883.59;;;29.29;36.23
21900;BME280;11114;50.658;12.704;2023-05-22T08:47:39;95876.56;;;29.33;35.75
21900;BME280;11114;50.658;12.704;2023-05-22T08:50:27;95876.41;;;29.53;35.99
21900;BME280;11114;50.658;12.704;2023-05-22T08:53:14;95880.69;;;29.59;35.17
21900;BME280;11114;50.658;12.704;2023-05-22T08:56:03;95873.72;;;29.53;34.67
21900;BME280;11114;50.658;12.704;2023-05-22T08:58:50;95874.72;;;29.28;34.77
21900;BME280;11114;50.658;12.704;2023-05-22T09:01:37;95876.03;;;29.31;35.17
21900;BME280;11114;50.658;12.704;2023-05-22T09:04:24;95870.19;;;29.24;34.75
21900;BME280;11114;50.658;12.704;2023-05-22T09:07:12;95874.34;;;29.45;36.20
21900;BME280;11114;50.658;12.704;2023-05-22T09:09:59;95864.22;;;29.65;35.04
21900;BME280;11114;50.658;12.704;2023-05-22T09:13:07;95861.47;;;29.70;34.61
21900;BME280;11114;50.658;12.704;2023-05-22T09:15:58;95859.66;;;29.89;34.11
21900;BME280;11114;50.658;12.704;2023-05-22T09:18:46;95855.13;;;30.13;34.16
21900;BME280;11114;50.658;12.704;2023-05-22T09:21:35;95850.38;;;30.52;33.64
21900;BME280;11114;50.658;12.704;2023-05-22T09:24:22;95855.06;;;30.83;34.58
21900;BME280;11114;50.658;12.704;2023-05-22T09:27:09;95855.78;;;31.25;33.88
21900;BME280;11114;50.658;12.704;2023-05-22T09:29:57;95847.94;;;31.61;33.04
21900;BME280;11114;50.658;12.704;2023-05-22T09:32:44;95849.41;;;31.85;32.50
21900;BME280;11114;50.658;12.704;2023-05-22T09:35:34;95848.19;;;31.91;30.98
21900;BME280;11114;50.658;12.704;2023-05-22T09:38:28;95849.53;;;32.07;33.14
21900;BME280;11114;50.658;12.704;2023-05-22T09:41:21;95845.94;;;32.38;31.06
21900;BME280;11114;50.658;12.704;2023-05-22T09:44:14;95839.50;;;32.61;31.10
21900;BME280;11114;50.658;12.704;2023-05-22T09:47:02;95842.50;;;32.73;28.72
21900;BME280;11114;50.658;12.704;2023-05-22T09:49:49;95841.28;;;32.79;29.94
21900;BME280;11114;50.658;12.704;2023-05-22T09:52:36;95838.81;;;33.04;29.02
21900;BME280;11114;50.658;12.704;2023-05-22T09:55:23;95835.91;;;33.01;29.81
21900;BME280;11114;50.658;12.704;2023-05-22T09:58:12;95830.75;;;32.91;28.93
21900;BME280;11114;50.658;12.704;2023-05-22T10:01:00;95831.72;;;33.08;29.17
21900;BME280;11114;50.658;12.704;2023-05-22T10:03:48;95836.50;;;33.11;28.34
21900;BME280;11114;50.658;12.704;2023-05-22T10:06:38;95829.81;;;32.60;28.46
21900;BME280;11114;50.658;12.704;2023-05-22T10:09:26;95825.59;;;32.54;29.11
21900;BME280;11114;50.658;12.704;2023-05-22T10:12:16;95830.03;;;32.64;28.71
21900;BME280;11114;50.658;12.704;2023-05-22T10:15:06;95825.00;;;32.44;28.23
21900;BME280;11114;50.658;12.704;2023-05-22T10:17:54;95829.81;;;32.60;29.45
21900;BME280;11114;50.658;12.704;2023-05-22T10:20:42;95824.91;;;32.97;29.42
21900;BME280;11114;50.658;12.704;2023-05-22T10:23:29;95823.84;;;33.20;28.08
21900;BME280;11114;50.658;12.704;2023-05-22T10:26:16;95818.19;;;33.52;28.60
21900;BME280;11114;50.658;12.704;2023-05-22T10:29:13;95820.13;;;33.82;27.36
21900;BME280;11114;50.658;12.704;2023-05-22T10:32:17;95818.34;;;34.08;27.85
21900;BME280;11114;50.658;12.704;2023-05-22T10:35:27;95821.00;;;34.30;27.27
21900;BME280;11114;50.658;12.704;2023-05-22T10:41:08;95815.22;;;34.23;25.95
21900;BME280;11114;50.658;12.704;2023-05-22T10:43:56;95817.41;;;34.12;25.25
21900;BME280;11114;50.658;12.704;2023-05-22T10:46:47;95813.19;;;33.98;26.76
21900;BME280;11114;50.658;12.704;2023-05-22T10:49:36;95807.06;;;34.14;27.50
21900;BME280;11114;50.658;12.704;2023-05-22T10:52:24;95802.81;;;34.30;27.44
21900;BME280;11114;50.658;12.704;2023-05-22T10:55:12;95796.16;;;34.44;27.02
21900;BME280;11114;50.658;12.704;2023-05-22T10:58:11;95797.97;;;34.66;25.93
21900;BME280;11114;50.658;12.704;2023-05-22T11:01:17;95794.63;;;34.60;26.47
21900;BME280;11114;50.658;12.704;2023-05-22T11:04:09;95797.75;;;34.45;26.30
21900;BME280;11114;50.658;12.704;2023-05-22T11:07:04;95795.81;;;34.38;27.50
21900;BME280;11114;50.658;12.704;2023-05-22T11:09:59;95790.25;;;34.42;26.19
21900;BME280;11114;50.658;12.704;2023-05-22T11:12:45;95798.66;;;34.33;26.28
21900;BME280;11114;50.658;12.704;2023-05-22T11:15:32;95790.06;;;34.31;27.13
21900;BME280;11114;50.658;12.704;2023-05-22T11:18:18;95786.72;;;34.34;26.81
21900;BME280;11114;50.658;12.704;2023-05-22T11:21:08;95786.81;;;34.12;27.18
21900;BME280;11114;50.658;12.704;2023-05-22T11:23:59;95790.34;;;34.21;27.39
21900;BME280;11114;50.658;12.704;2023-05-22T11:26:59;95780.28;;;34.13;26.19
21900;BME280;11114;50.658;12.704;2023-05-22T11:29:47;95776.56;;;34.00;25.03
21900;BME280;11114;50.658;12.704;2023-05-22T11:32:36;95781.59;;;33.85;24.84
21900;BME280;11114;50.658;12.704;2023-05-22T11:35:22;95776.72;;;33.65;25.79
21900;BME280;11114;50.658;12.704;2023-05-22T11:38:10;95778.31;;;33.66;26.38
21900;BME280;11114;50.658;12.704;2023-05-22T11:40:56;95769.88;;;33.67;25.85
21900;BME280;11114;50.658;12.704;2023-05-22T11:43:43;95763.66;;;33.67;26.49
21900;BME280;11114;50.658;12.704;2023-05-22T11:46:29;95769.78;;;33.81;26.16
21900;BME280;11114;50.658;12.704;2023-05-22T11:49:16;95771.19;;;33.78;26.26
21900;BME280;11114;50.658;12.704;2023-05-22T11:52:03;95761.50;;;33.55;24.84
21900;BME280;11114;50.658;12.704;2023-05-22T11:54:50;95759.47;;;33.61;25.54
21900;BME280;11114;50.658;12.704;2023-05-22T11:57:37;95752.50;;;33.60;25.67
21900;BME280;11114;50.658;12.704;2023-05-22T12:00:24;95760.69;;;33.77;25.33
21900;BME280;11114;50.658;12.704;2023-05-22T12:03:11;95750.31;;;33.79;25.56
21900;BME280;11114;50.658;12.704;2023-05-22T12:06:00;95747.53;;;34.01;24.17
21900;BME280;11114;50.658;12.704;2023-05-22T12:08:47;95757.75;;;34.04;25.84
21900;BME280;11114;50.658;12.704;2023-05-22T12:11:34;95744.44;;;34.33;24.09
21900;BME280;11114;50.658;12.704;2023-05-22T12:14:28;95743.66;;;34.40;24.22
21900;BME280;11114;50.658;12.704;2023-05-22T12:17:16;95735.38;;;34.54;25.09
21900;BME280;11114;50.658;12.704;2023-05-22T12:20:04;95741.44;;;34.42;25.59
21900;BME280;11114;50.658;12.704;2023-05-22T12:22:54;95741.78;;;34.41;25.71
21900;BME280;11114;50.658;12.704;2023-05-22T12:25:41;95735.03;;;34.30;25.29
21900;BME280;11114;50.658;12.704;2023-05-22T12:28:32;95741.56;;;34.21;24.07
21900;BME280;11114;50.658;12.704;2023-05-22T12:31:23;95737.91;;;33.78;24.18
21900;BME280;11114;50.658;12.704;2023-05-22T12:34:10;95744.94;;;33.57;24.66
21900;BME280;11114;50.658;12.704;2023-05-22T12:36:56;95738.78;;;33.35;24.73
21900;BME280;11114;50.658;12.704;2023-05-22T12:39:58;95733.31;;;33.04;23.65
21900;BME280;11114;50.658;12.704;2023-05-22T12:42:46;95737.84;;;32.73;23.83
21900;BME280;11114;50.658;12.704;2023-05-22T12:45:32;95724.41;;;32.47;25.13
21900;BME280;11114;50.658;12.704;2023-05-22T12:48:19;95736.59;;;32.09;26.42
21900;BME280;11114;50.658;12.704;2023-05-22T12:51:07;95737.56;;;31.86;26.91
21900;BME280;11114;50.658;12.704;2023-05-22T12:53:58;95732.16;;;31.59;27.75
21900;BME280;11114;50.658;12.704;2023-05-22T12:56:44;95728.19;;;31.25;28.16
21900;BME280;11114;50.658;12.704;2023-05-22T12:59:32;95732.75;;;31.11;28.40
21900;BME280;11114;50.658;12.704;2023-05-22T13:02:18;95735.75;;;31.09;28.22
21900;BME280;11114;50.658;12.704;2023-05-22T13:05:05;95730.63;;;30.58;26.52
21900;BME280;11114;50.658;12.704;2023-05-22T13:07:51;95730.06;;;30.19;26.97
21900;BME280;11114;50.658;12.704;2023-05-22T13:10:38;95727.97;;;30.16;28.79
21900;BME280;11114;50.658;12.704;2023-05-22T13:13:25;95724.25;;;30.12;28.44
21900;BME280;11114;50.658;12.704;2023-05-22T13:16:12;95729.06;;;29.97;28.51
21900;BME280;11114;50.658;12.704;2023-05-22T13:18:58;95724.00;;;29.90;29.03
21900;BME280;11114;50.658;12.704;2023-05-22T13:21:44;95723.53;;;30.07;29.44
21900;BME280;11114;50.658;12.704;2023-05-22T13:24:30;95721.50;;;30.17;28.92
21900;BME280;11114;50.658;12.704;2023-05-22T13:27:17;95713.44;;;30.17;30.28
21900;BME280;11114;50.658;12.704;2023-05-22T13:30:04;95716.69;;;30.14;29.24
21900;BME280;11114;50.658;12.704;2023-05-22T13:32:51;95727.59;;;30.04;29.36
21900;BME280;11114;50.658;12.704;2023-05-22T13:35:37;95719.16;;;29.87;29.82
21900;BME280;11114;50.658;12.704;2023-05-22T13:38:26;95719.25;;;29.59;31.07
21900;BME280;11114;50.658;12.704;2023-05-22T13:41:13;95714.63;;;29.41;30.71
21900;BME280;11114;50.658;12.704;2023-05-22T13:44:00;95718.38;;;29.40;30.93
21900;BME280;11114;50.658;12.704;2023-05-22T13:46:46;95718.06;;;29.46;31.08
21900;BME280;11114;50.658;12.704;2023-05-22T13:49:33;95719.69;;;29.42;31.68
21900;BME280;11114;50.658;12.704;2023-05-22T13:52:20;95706.56;;;29.36;32.42
21900;BME280;11114;50.658;12.704;2023-05-22T13:55:08;95707.41;;;29.31;32.13
21900;BME280;11114;50.658;12.704;2023-05-22T13:57:54;95707.47;;;29.26;31.38
21900;BME280;11114;50.658;12.704;2023-05-22T14:00:41;95693.13;;;29.13;31.26
21900;BME280;11114;50.658;12.704;2023-05-22T14:03:27;95702.28;;;29.07;31.90
21900;BME280;11114;50.658;12.704;2023-05-22T14:06:13;95699.56;;;28.78;32.03
21900;BME280;11114;50.658;12.704;2023-05-22T14:09:00;95699.88;;;28.72;32.62
21900;BME280;11114;50.658;12.704;2023-05-22T14:11:46;95693.66;;;28.48;32.02
21900;BME280;11114;50.658;12.704;2023-05-22T14:14:32;95693.28;;;28.21;31.92
21900;BME280;11114;50.658;12.704;2023-05-22T14:17:19;95688.25;;;28.05;32.63
21900;BME280;11114;50.658;12.704;2023-05-22T14:20:06;95693.16;;;27.93;33.00
21900;BME280;11114;50.658;12.704;2023-05-22T14:22:53;95699.75;;;27.62;33.11
21900;BME280;11114;50.658;12.704;2023-05-22T14:25:43;95693.09;;;27.45;32.96
21900;BME280;11114;50.658;12.704;2023-05-22T14:28:30;95685.63;;;27.27;33.05
21900;BME280;11114;50.658;12.704;2023-05-22T14:31:16;95686.72;;;27.16;32.99
21900;BME280;11114;50.658;12.704;2023-05-22T14:34:03;95686.69;;;27.21;33.75
21900;BME280;11114;50.658;12.704;2023-05-22T14:36:51;95681.06;;;27.32;35.10
21900;BME280;11114;50.658;12.704;2023-05-22T14:39:40;95685.06;;;27.35;32.88
21900;BME280;11114;50.658;12.704;2023-05-22T14:42:27;95683.75;;;27.27;33.03
21900;BME280;11114;50.658;12.704;2023-05-22T14:45:13;95680.81;;;27.29;34.27
21900;BME280;11114;50.658;12.704;2023-05-22T14:48:00;95678.38;;;27.32;34.17
21900;BME280;11114;50.658;12.704;2023-05-22T14:50:46;95678.34;;;27.37;33.93
21900;BME280;11114;50.658;12.704;2023-05-22T14:53:35;95685.03;;;27.40;33.81
21900;BME280;11114;50.658;12.704;2023-05-22T14:56:22;95674.84;;;27.42;33.73
21900;BME280;11114;50.658;12.704;2023-05-22T14:59:09;95670.00;;;27.48;34.64
21900;BME280;11114;50.658;12.704;2023-05-22T15:01:57;95679.59;;;27.59;34.01